sensor_id;sensor_type;location;lat;lon;timestamp;temperature;humidity
28532;DHT22;15738;44.860;10.066;2023-05-23T00:01:31;18.90;99.90
28532;DHT22;15738;44.860;10.066;2023-05-23T00:04:17;19.00;99.90
28532;DHT22;15738;44.860;10.066;2023-05-23T00:07:03;18.90;99.90
28532;DHT22;15738;44.860;10.066;2023-05-23T00:09:49;18.90;99.90
28532;DHT22;15738;44.860;10.066;2023-05-23T00:12:34;18.90;99.90
28532;DHT22;15738;44.860;10.066;2023-05-23T00:15:22;18.90;99.90
28532;DHT22;15738;44.860;10.066;2023-05-23T00:18:07;18.90;99.90
28532;DHT22;15738;44.860;10.066;2023-05-23T00:20:53;18.90;99.90
28532;DHT22;15738;44.860;10.066;2023-05-23T00:23:39;19.00;99.90
28532;DHT22;15738;44.860;10.066;2023-05-23T00:36:26;18.90;99.90
28532;DHT22;15738;44.860;10.066;2023-05-23T00:39:12;18.80;99.90
28532;DHT22;15738;44.860;10.066;2023-05-23T00:42:05;18.80;99.90
28532;DHT22;15738;44.860;10.066;2023-05-23T00:44:51;18.70;99.90
28532;DHT22;15738;44.860;10.066;2023-05-23T00:47:40;18.70;99.90
28532;DHT22;15738;44.860;10.066;2023-05-23T00:50:27;18.70;99.90
28532;DHT22;15738;44.860;10.066;2023-05-23T00:53:14;18.60;99.90
28532;DHT22;15738;44.860;10.066;2023-05-23T00:56:01;18.50;99.90
28532;DHT22;15738;44.860;10.066;2023-05-23T00:58:47;18.40;99.90
28532;DHT22;15738;44.860;10.066;2023-05-23T01:01:32;18.30;99.90
28532;DHT22;15738;44.860;10.066;2023-05-23T01:04:21;18.20;99.90
28532;DHT22;15738;44.860;10.066;2023-05-23T01:07:11;18.20;99.90
28532;DHT22;15738;44.860;10.066;2023-05-23T01:09:58;18.10;99.90
28532;DHT22;15738;44.860;10.066;2023-05-23T01:12:45;18.00;99.90
28532;DHT22;15738;44.860;10.066;2023-05-23T01:18:29;17.90;99.90
28532;DHT22;15738;44.860;10.066;2023-05-23T01:21:17;17.90;99.90
28532;DHT22;15738;44.860;10.066;2023-05-23T01:29:52;17.80;99.90
28532;DHT22;15738;44.860;10.066;2023-05-23T01:32:39;17.80;99.90
28532;DHT22;15738;44.860;10.066;2023-05-23T01:35:25;17.80;99.90
28532;DHT22;15738;44.860;10.066;2023-05-23T01:38:11;17.70;99.90
28532;DHT22;15738;44.860;10.066;2023-05-23T01:40:57;17.70;99.90
28532;DHT22;15738;44.860;10.066;2023-05-23T01:43:43;17.70;99.90
28532;DHT22;15738;44.860;10.066;2023-05-23T01:46:28;17.70;99.90
28532;DHT22;15738;44.860;10.066;2023-05-23T01:49:15;17.60;99.90
28532;DHT22;15738;44.860;10.066;2023-05-23T01:52:02;17.60;99.90
28532;DHT22;15738;44.860;10.066;2023-05-23T01:54:49;17.60;99.90
28532;DHT22;15738;44.860;10.066;2023-05-23T01:57:36;17.60;99.90
28532;DHT22;15738;44.860;10.066;2023-05-23T02:00:22;17.60;99.90
28532;DHT22;15738;44.860;10.066;2023-05-23T02:03:09;17.60;99.90
28532;DHT22;15738;44.860;10.066;2023-05-23T02:05:56;17.50;99.90
28532;DHT22;15738;44.860;10.066;2023-05-23T02:08:42;17.60;99.90
28532;DHT22;15738;44.860;10.066;2023-05-23T02:11:27;17.50;99.90
28532;DHT22;15738;44.860;10.066;2023-05-23T02:14:13;17.50;99.90
28532;DHT22;15738;44.860;10.066;2023-05-23T02:16:59;17.60;99.90
28532;DHT22;15738;44.860;10.066;2023-05-23T02:19:45;17.60;99.90
28532;DHT22;15738;44.860;10.066;2023-05-23T02:22:31;17.60;99.90
28532;DHT22;15738;44.860;10.066;2023-05-23T02:25:17;17.70;99.90
28532;DHT22;15738;44.860;10.066;2023-05-23T02:28:03;17.60;99.90
28532;DHT22;15738;44.860;10.066;2023-05-23T02:30:49;17.60;99.90
28532;DHT22;15738;44.860;10.066;2023-05-23T02:33:34;17.60;99.90
28532;DHT22;15738;44.860;10.066;2023-05-23T02:36:20;17.60;99.90
28532;DHT22;15738;44.860;10.066;2023-05-23T02:39:06;17.60;99.90
28532;DHT22;15738;44.860;10.066;2023-05-23T02:41:51;17.60;99.90
28532;DHT22;15738;44.860;10.066;2023-05-23T02:44:37;17.60;99.90
28532;DHT22;15738;44.860;10.066;2023-05-23T02:47:23;17.60;99.90
28532;DHT22;15738;44.860;10.066;2023-05-23T02:50:09;17.50;99.90
28532;DHT22;15738;44.860;10.066;2023-05-23T02:52:55;17.50;99.90
28532;DHT22;15738;44.860;10.066;2023-05-23T02:55:41;17.50;99.90
28532;DHT22;15738;44.860;10.066;2023-05-23T02:58:27;17.40;99.90
28532;DHT22;15738;44.860;10.066;2023-05-23T03:01:14;17.50;99.90
28532;DHT22;15738;44.860;10.066;2023-05-23T03:04:00;17.50;99.90
28532;DHT22;15738;44.860;10.066;2023-05-23T03:06:47;17.50;99.90
28532;DHT22;15738;44.860;10.066;2023-05-23T03:09:32;17.00;99.90
28532;DHT22;15738;44.860;10.066;2023-05-23T03:12:18;17.50;99.90
28532;DHT22;15738;44.860;10.066;2023-05-23T03:15:04;17.50;99.90
28532;DHT22;15738;44.860;10.066;2023-05-23T03:17:51;17.50;99.90
28532;DHT22;15738;44.860;10.066;2023-05-23T03:20:37;17.50;99.90
28532;DHT22;15738;44.860;10.066;2023-05-23T03:23:22;17.50;99.90
28532;DHT22;15738;44.860;10.066;2023-05-23T03:26:08;17.50;99.90
28532;DHT22;15738;44.860;10.066;2023-05-23T03:28:54;17.50;99.90
28532;DHT22;15738;44.860;10.066;2023-05-23T03:31:40;17.40;99.90
28532;DHT22;15738;44.860;10.066;2023-05-23T03:34:25;17.40;99.90
28532;DHT22;15738;44.860;10.066;2023-05-23T03:37:11;17.40;99.90
28532;DHT22;15738;44.860;10.066;2023-05-23T03:39:57;17.40;99.90
28532;DHT22;15738;44.860;10.066;2023-05-23T03:42:42;17.40;99.90
28532;DHT22;15738;44.860;10.066;2023-05-23T03:45:29;17.50;99.90
28532;DHT22;15738;44.860;10.066;2023-05-23T03:48:15;17.50;99.90
28532;DHT22;15738;44.860;10.066;2023-05-23T03:51:01;17.50;99.90
28532;DHT22;15738;44.860;10.066;2023-05-23T03:53:48;17.60;99.90
28532;DHT22;15738;44.860;10.066;2023-05-23T03:56:34;17.50;99.90
28532;DHT22;15738;44.860;10.066;2023-05-23T03:59:21;17.60;99.90
28532;DHT22;15738;44.860;10.066;2023-05-23T04:02:07;17.50;99.90
28532;DHT22;15738;44.860;10.066;2023-05-23T04:04:53;17.50;99.90
28532;DHT22;15738;44.860;10.066;2023-05-23T04:07:42;17.50;99.90
28532;DHT22;15738;44.860;10.066;2023-05-23T04:10:28;17.50;99.90
28532;DHT22;15738;44.860;10.066;2023-05-23T04:13:14;17.60;99.90
28532;DHT22;15738;44.860;10.066;2023-05-23T04:16:00;17.60;99.90
28532;DHT22;15738;44.860;10.066;2023-05-23T04:18:46;17.60;99.90
28532;DHT22;15738;44.860;10.066;2023-05-23T04:21:32;17.60;99.90
28532;DHT22;15738;44.860;10.066;2023-05-23T04:24:25;17.60;99.90
28532;DHT22;15738;44.860;10.066;2023-05-23T04:27:11;17.60;99.90
28532;DHT22;15738;44.860;10.066;2023-05-23T04:29:58;17.60;99.90
28532;DHT22;15738;44.860;10.066;2023-05-23T04:32:45;17.60;99.90
28532;DHT22;15738;44.860;10.066;2023-05-23T04:35:31;17.60;99.90
28532;DHT22;15738;44.860;10.066;2023-05-23T04:38:19;14.00;99.90
28532;DHT22;15738;44.860;10.066;2023-05-23T04:41:07;17.70;99.90
28532;DHT22;15738;44.860;10.066;2023-05-23T04:44:13;17.80;99.90
28532;DHT22;15738;44.860;10.066;2023-05-23T04:47:20;18.00;99.90
28532;DHT22;15738;44.860;10.066;2023-05-23T04:50:20;18.10;99.90
28532;DHT22;15738;44.860;10.066;2023-05-23T04:53:08;18.20;99.90
28532;DHT22;15738;44.860;10.066;2023-05-23T04:55:54;18.30;99.90
28532;DHT22;15738;44.860;10.066;2023-05-23T04:58:41;18.40;99.90
28532;DHT22;15738;44.860;10.066;2023-05-23T05:01:30;19.80;99.90
28532;DHT22;15738;44.860;10.066;2023-05-23T05:04:17;18.70;99.90
28532;DHT22;15738;44.860;10.066;2023-05-23T05:07:03;18.80;99.90
28532;DHT22;15738;44.860;10.066;2023-05-23T05:09:49;19.00;99.90
28532;DHT22;15738;44.860;10.066;2023-05-23T05:12:35;19.00;99.90
28532;DHT22;15738;44.860;10.066;2023-05-23T05:15:23;19.20;99.90
28532;DHT22;15738;44.860;10.066;2023-05-23T05:18:14;19.20;99.90
28532;DHT22;15738;44.860;10.066;2023-05-23T05:21:02;19.40;99.90
28532;DHT22;15738;44.860;10.066;2023-05-23T05:23:48;19.50;99.90
28532;DHT22;15738;44.860;10.066;2023-05-23T05:26:35;19.70;99.90
28532;DHT22;15738;44.860;10.066;2023-05-23T05:29:21;19.90;99.90
28532;DHT22;15738;44.860;10.066;2023-05-23T05:32:07;20.10;99.90
28532;DHT22;15738;44.860;10.066;2023-05-23T05:34:55;20.20;99.90
28532;DHT22;15738;44.860;10.066;2023-05-23T05:37:40;20.40;99.90
28532;DHT22;15738;44.860;10.066;2023-05-23T05:40:27;20.70;99.90
28532;DHT22;15738;44.860;10.066;2023-05-23T05:43:13;20.80;99.90
28532;DHT22;15738;44.860;10.066;2023-05-23T05:45:59;21.00;99.90
28532;DHT22;15738;44.860;10.066;2023-05-23T05:48:46;21.30;99.90
28532;DHT22;15738;44.860;10.066;2023-05-23T05:51:35;21.50;99.90
28532;DHT22;15738;44.860;10.066;2023-05-23T05:54:21;21.60;99.90
28532;DHT22;15738;44.860;10.066;2023-05-23T05:57:07;21.80;99.90
28532;DHT22;15738;44.860;10.066;2023-05-23T05:59:53;21.90;99.90
28532;DHT22;15738;44.860;10.066;2023-05-23T06:02:39;22.00;99.90
28532;DHT22;15738;44.860;10.066;2023-05-23T06:05:26;22.10;99.90
28532;DHT22;15738;44.860;10.066;2023-05-23T06:08:11;22.30;99.90
28532;DHT22;15738;44.860;10.066;2023-05-23T06:10:57;22.50;99.90
28532;DHT22;15738;44.860;10.066;2023-05-23T06:13:44;22.60;99.90
28532;DHT22;15738;44.860;10.066;2023-05-23T06:16:29;22.70;99.90
28532;DHT22;15738;44.860;10.066;2023-05-23T06:27:43;23.10;99.90
28532;DHT22;15738;44.860;10.066;2023-05-23T06:30:30;23.30;99.90
28532;DHT22;15738;44.860;10.066;2023-05-23T06:33:16;23.50;99.90
28532;DHT22;15738;44.860;10.066;2023-05-23T06:36:02;23.60;99.90
28532;DHT22;15738;44.860;10.066;2023-05-23T06:38:49;23.80;99.90
28532;DHT22;15738;44.860;10.066;2023-05-23T06:41:35;24.00;99.90
28532;DHT22;15738;44.860;10.066;2023-05-23T06:44:22;24.20;99.90
28532;DHT22;15738;44.860;10.066;2023-05-23T06:47:11;24.50;99.90
28532;DHT22;15738;44.860;10.066;2023-05-23T06:49:57;24.60;99.90
28532;DHT22;15738;44.860;10.066;2023-05-23T06:52:43;24.80;99.90
28532;DHT22;15738;44.860;10.066;2023-05-23T06:55:31;24.80;99.90
28532;DHT22;15738;44.860;10.066;2023-05-23T06:58:18;25.00;99.90
28532;DHT22;15738;44.860;10.066;2023-05-23T07:01:04;25.20;99.90
28532;DHT22;15738;44.860;10.066;2023-05-23T07:03:53;25.30;99.90
28532;DHT22;15738;44.860;10.066;2023-05-23T07:06:40;25.70;99.90
28532;DHT22;15738;44.860;10.066;2023-05-23T07:09:26;25.80;99.90
28532;DHT22;15738;44.860;10.066;2023-05-23T07:12:23;25.80;99.90
28532;DHT22;15738;44.860;10.066;2023-05-23T07:15:10;26.10;99.90
28532;DHT22;15738;44.860;10.066;2023-05-23T07:18:06;26.20;99.90
28532;DHT22;15738;44.860;10.066;2023-05-23T07:20:52;26.40;99.90
28532;DHT22;15738;44.860;10.066;2023-05-23T07:23:39;26.30;99.90
28532;DHT22;15738;44.860;10.066;2023-05-23T07:26:25;26.40;99.90
28532;DHT22;15738;44.860;10.066;2023-05-23T07:29:13;26.50;99.90
28532;DHT22;15738;44.860;10.066;2023-05-23T07:31:59;26.70;99.90
28532;DHT22;15738;44.860;10.066;2023-05-23T07:34:46;26.70;99.90
28532;DHT22;15738;44.860;10.066;2023-05-23T07:37:31;26.90;99.90
28532;DHT22;15738;44.860;10.066;2023-05-23T07:40:17;27.00;99.90
28532;DHT22;15738;44.860;10.066;2023-05-23T07:43:03;27.00;99.90
28532;DHT22;15738;44.860;10.066;2023-05-23T07:45:50;27.10;99.90
28532;DHT22;15738;44.860;10.066;2023-05-23T07:48:36;27.00;99.90
28532;DHT22;15738;44.860;10.066;2023-05-23T07:51:21;27.10;99.90
28532;DHT22;15738;44.860;10.066;2023-05-23T07:54:08;27.50;99.90
28532;DHT22;15738;44.860;10.066;2023-05-23T07:56:58;27.50;99.90
28532;DHT22;15738;44.860;10.066;2023-05-23T07:59:45;27.60;99.90
28532;DHT22;15738;44.860;10.066;2023-05-23T08:02:30;27.80;99.90
28532;DHT22;15738;44.860;10.066;2023-05-23T08:05:16;28.00;99.90
28532;DHT22;15738;44.860;10.066;2023-05-23T08:08:08;28.10;99.90
28532;DHT22;15738;44.860;10.066;2023-05-23T08:10:53;28.30;99.90
28532;DHT22;15738;44.860;10.066;2023-05-23T08:13:44;28.70;99.90
28532;DHT22;15738;44.860;10.066;2023-05-23T08:16:50;28.70;99.90
28532;DHT22;15738;44.860;10.066;2023-05-23T08:19:41;28.90;99.90
28532;DHT22;15738;44.860;10.066;2023-05-23T08:22:26;29.10;99.90
28532;DHT22;15738;44.860;10.066;2023-05-23T08:25:12;29.20;99.90
28532;DHT22;15738;44.860;10.066;2023-05-23T08:27:59;29.20;99.90
28532;DHT22;15738;44.860;10.066;2023-05-23T08:31:00;29.30;99.90
28532;DHT22;15738;44.860;10.066;2023-05-23T08:33:46;29.40;99.90
28532;DHT22;15738;44.860;10.066;2023-05-23T08:36:32;29.50;99.90
28532;DHT22;15738;44.860;10.066;2023-05-23T08:39:24;29.60;99.90
28532;DHT22;15738;44.860;10.066;2023-05-23T08:42:19;29.40;99.90
28532;DHT22;15738;44.860;10.066;2023-05-23T08:45:05;29.50;99.90
28532;DHT22;15738;44.860;10.066;2023-05-23T08:47:51;29.50;99.90
28532;DHT22;15738;44.860;10.066;2023-05-23T08:50:40;29.50;99.90
28532;DHT22;15738;44.860;10.066;2023-05-23T08:53:27;29.50;99.90
28532;DHT22;15738;44.860;10.066;2023-05-23T08:56:21;29.50;99.90
28532;DHT22;15738;44.860;10.066;2023-05-23T08:59:08;29.60;99.90
28532;DHT22;15738;44.860;10.066;2023-05-23T09:01:55;29.40;99.90
28532;DHT22;15738;44.860;10.066;2023-05-23T09:04:42;29.30;99.90
28532;DHT22;15738;44.860;10.066;2023-05-23T09:07:32;29.20;99.90
28532;DHT22;15738;44.860;10.066;2023-05-23T09:10:19;29.20;99.90
28532;DHT22;15738;44.860;10.066;2023-05-23T09:13:05;29.30;99.90
28532;DHT22;15738;44.860;10.066;2023-05-23T09:18:47;29.10;99.90
28532;DHT22;15738;44.860;10.066;2023-05-23T09:21:34;29.00;99.90
28532;DHT22;15738;44.860;10.066;2023-05-23T09:24:34;29.00;99.90
28532;DHT22;15738;44.860;10.066;2023-05-23T09:27:24;28.80;99.90
28532;DHT22;15738;44.860;10.066;2023-05-23T09:30:11;28.70;99.90
28532;DHT22;15738;44.860;10.066;2023-05-23T09:32:58;28.70;99.90
28532;DHT22;15738;44.860;10.066;2023-05-23T09:35:50;28.60;99.90
28532;DHT22;15738;44.860;10.066;2023-05-23T09:38:36;28.80;99.90
28532;DHT22;15738;44.860;10.066;2023-05-23T09:41:23;28.80;99.90
28532;DHT22;15738;44.860;10.066;2023-05-23T09:44:09;28.70;99.90
28532;DHT22;15738;44.860;10.066;2023-05-23T09:46:55;28.70;99.90
28532;DHT22;15738;44.860;10.066;2023-05-23T09:49:44;28.70;99.90
28532;DHT22;15738;44.860;10.066;2023-05-23T09:52:37;28.60;99.90
28532;DHT22;15738;44.860;10.066;2023-05-23T09:55:23;28.70;99.90
28532;DHT22;15738;44.860;10.066;2023-05-23T09:58:09;28.60;99.90
28532;DHT22;15738;44.860;10.066;2023-05-23T10:00:55;28.70;99.90
28532;DHT22;15738;44.860;10.066;2023-05-23T10:03:49;28.60;99.90
28532;DHT22;15738;44.860;10.066;2023-05-23T10:06:39;28.70;99.90
28532;DHT22;15738;44.860;10.066;2023-05-23T10:09:27;28.70;99.90
28532;DHT22;15738;44.860;10.066;2023-05-23T10:15:22;28.60;99.90
28532;DHT22;15738;44.860;10.066;2023-05-23T10:18:16;28.70;99.90
28532;DHT22;15738;44.860;10.066;2023-05-23T10:21:04;28.40;99.90
28532;DHT22;15738;44.860;10.066;2023-05-23T10:23:51;28.50;99.90
28532;DHT22;15738;44.860;10.066;2023-05-23T10:26:37;28.50;99.90
28532;DHT22;15738;44.860;10.066;2023-05-23T10:29:23;28.60;99.90
28532;DHT22;15738;44.860;10.066;2023-05-23T10:32:08;28.40;99.90
28532;DHT22;15738;44.860;10.066;2023-05-23T10:40:45;28.30;99.90
28532;DHT22;15738;44.860;10.066;2023-05-23T10:49:43;28.40;99.90
28532;DHT22;15738;44.860;10.066;2023-05-23T10:52:30;28.20;99.90
28532;DHT22;15738;44.860;10.066;2023-05-23T10:55:23;28.30;99.90
28532;DHT22;15738;44.860;10.066;2023-05-23T10:58:10;28.30;99.90
28532;DHT22;15738;44.860;10.066;2023-05-23T11:00:59;28.30;99.90
28532;DHT22;15738;44.860;10.066;2023-05-23T11:06:37;28.10;99.90
28532;DHT22;15738;44.860;10.066;2023-05-23T11:09:23;28.00;99.90
28532;DHT22;15738;44.860;10.066;2023-05-23T11:12:09;28.10;99.90
28532;DHT22;15738;44.860;10.066;2023-05-23T11:14:55;28.20;99.90
28532;DHT22;15738;44.860;10.066;2023-05-23T11:17:49;28.20;99.90
28532;DHT22;15738;44.860;10.066;2023-05-23T11:20:36;28.30;99.90
28532;DHT22;15738;44.860;10.066;2023-05-23T11:23:22;28.30;99.90
28532;DHT22;15738;44.860;10.066;2023-05-23T11:29:12;28.10;99.90
28532;DHT22;15738;44.860;10.066;2023-05-23T11:32:07;27.90;99.90
28532;DHT22;15738;44.860;10.066;2023-05-23T11:35:05;27.90;99.90
28532;DHT22;15738;44.860;10.066;2023-05-23T11:37:51;28.10;99.90
28532;DHT22;15738;44.860;10.066;2023-05-23T11:40:40;28.20;99.90
28532;DHT22;15738;44.860;10.066;2023-05-23T11:43:27;28.20;99.90
28532;DHT22;15738;44.860;10.066;2023-05-23T11:46:12;28.30;99.90
28532;DHT22;15738;44.860;10.066;2023-05-23T11:48:58;28.40;99.90
28532;DHT22;15738;44.860;10.066;2023-05-23T11:51:45;28.40;99.90
28532;DHT22;15738;44.860;10.066;2023-05-23T11:54:31;28.40;99.90
28532;DHT22;15738;44.860;10.066;2023-05-23T11:57:17;28.40;99.90
28532;DHT22;15738;44.860;10.066;2023-05-23T12:00:03;28.40;99.90
28532;DHT22;15738;44.860;10.066;2023-05-23T12:02:50;28.30;99.90
28532;DHT22;15738;44.860;10.066;2023-05-23T12:05:36;28.20;99.90
28532;DHT22;15738;44.860;10.066;2023-05-23T12:08:21;28.10;99.90
28532;DHT22;15738;44.860;10.066;2023-05-23T12:11:07;28.20;99.90
28532;DHT22;15738;44.860;10.066;2023-05-23T12:13:53;28.30;99.90
28532;DHT22;15738;44.860;10.066;2023-05-23T12:16:39;28.30;99.90
28532;DHT22;15738;44.860;10.066;2023-05-23T12:19:27;28.30;99.90
28532;DHT22;15738;44.860;10.066;2023-05-23T12:22:13;28.20;99.90
28532;DHT22;15738;44.860;10.066;2023-05-23T12:25:00;28.20;99.90
28532;DHT22;15738;44.860;10.066;2023-05-23T12:27:47;28.30;99.90
28532;DHT22;15738;44.860;10.066;2023-05-23T12:30:40;28.30;99.90
28532;DHT22;15738;44.860;10.066;2023-05-23T12:33:27;28.40;99.90
28532;DHT22;15738;44.860;10.066;2023-05-23T12:36:15;28.40;99.90
28532;DHT22;15738;44.860;10.066;2023-05-23T12:39:06;28.40;99.90
28532;DHT22;15738;44.860;10.066;2023-05-23T12:41:54;28.50;99.90
28532;DHT22;15738;44.860;10.066;2023-05-23T12:44:42;28.60;99.90
28532;DHT22;15738;44.860;10.066;2023-05-23T12:47:28;28.70;99.90
28532;DHT22;15738;44.860;10.066;2023-05-23T12:50:14;28.60;99.90
28532;DHT22;15738;44.860;10.066;2023-05-23T12:53:00;28.60;99.90
28532;DHT22;15738;44.860;10.066;2023-05-23T12:55:45;28.60;99.90
28532;DHT22;15738;44.860;10.066;2023-05-23T12:58:31;28.50;99.90
28532;DHT22;15738;44.860;10.066;2023-05-23T13:01:18;28.40;99.90
28532;DHT22;15738;44.860;10.066;2023-05-23T13:04:04;28.40;99.90
28532;DHT22;15738;44.860;10.066;2023-05-23T13:06:50;28.40;99.90
28532;DHT22;15738;44.860;10.066;2023-05-23T13:09:37;28.40;99.90
28532;DHT22;15738;44.860;10.066;2023-05-23T13:12:24;28.50;99.90
28532;DHT22;15738;44.860;10.066;2023-05-23T13:15:10;28.10;99.90
28532;DHT22;15738;44.860;10.066;2023-05-23T13:17:56;28.20;99.90
28532;DHT22;15738;44.860;10.066;2023-05-23T13:20:42;28.20;99.90
28532;DHT22;15738;44.860;10.066;2023-05-23T13:23:28;28.30;99.90
28532;DHT22;15738;44.860;10.066;2023-05-23T13:26:14;28.30;99.90
28532;DHT22;15738;44.860;10.066;2023-05-23T13:28:59;28.30;99.90
28532;DHT22;15738;44.860;10.066;2023-05-23T13:31:45;28.30;99.90
28532;DHT22;15738;44.860;10.066;2023-05-23T13:34:31;28.40;99.90
28532;DHT22;15738;44.860;10.066;2023-05-23T13:37:19;28.40;99.90
28532;DHT22;15738;44.860;10.066;2023-05-23T13:40:05;28.40;99.90
28532;DHT22;15738;44.860;10.066;2023-05-23T13:42:51;28.40;99.90
28532;DHT22;15738;44.860;10.066;2023-05-23T13:45:38;28.40;99.90
28532;DHT22;15738;44.860;10.066;2023-05-23T13:48:24;28.40;99.90
28532;DHT22;15738;44.860;10.066;2023-05-23T13:51:10;28.40;99.90
28532;DHT22;15738;44.860;10.066;2023-05-23T13:53:57;28.40;99.90
28532;DHT22;15738;44.860;10.066;2023-05-23T13:56:42;28.40;99.90
28532;DHT22;15738;44.860;10.066;2023-05-23T14:01:33;28.30;99.90
28532;DHT22;15738;44.860;10.066;2023-05-23T14:04:19;28.30;99.90
28532;DHT22;15738;44.860;10.066;2023-05-23T14:07:04;28.40;99.90
28532;DHT22;15738;44.860;10.066;2023-05-23T14:09:50;28.30;99.90
28532;DHT22;15738;44.860;10.066;2023-05-23T14:12:36;28.40;99.90
28532;DHT22;15738;44.860;10.066;2023-05-23T14:15:22;28.40;99.90
28532;DHT22;15738;44.860;10.066;2023-05-23T14:18:07;28.30;99.90
28532;DHT22;15738;44.860;10.066;2023-05-23T14:20:53;28.30;99.90
28532;DHT22;15738;44.860;10.066;2023-05-23T14:23:39;28.30;99.90
28532;DHT22;15738;44.860;10.066;2023-05-23T14:26:25;28.30;99.90
28532;DHT22;15738;44.860;10.066;2023-05-23T14:29:10;28.20;99.90
28532;DHT22;15738;44.860;10.066;2023-05-23T14:31:56;28.20;99.90
28532;DHT22;15738;44.860;10.066;2023-05-23T14:34:44;28.20;99.90
28532;DHT22;15738;44.860;10.066;2023-05-23T14:37:30;28.30;99.90
28532;DHT22;15738;44.860;10.066;2023-05-23T14:40:16;28.20;99.90
28532;DHT22;15738;44.860;10.066;2023-05-23T14:43:01;28.20;99.90
28532;DHT22;15738;44.860;10.066;2023-05-23T14:45:47;28.20;99.90
28532;DHT22;15738;44.860;10.066;2023-05-23T14:48:33;28.20;99.90
28532;DHT22;15738;44.860;10.066;2023-05-23T14:51:19;28.20;99.90
28532;DHT22;15738;44.860;10.066;2023-05-23T14:54:25;28.20;99.90
28532;DHT22;15738;44.860;10.066;2023-05-23T14:57:10;28.20;99.90
28532;DHT22;15738;44.860;10.066;2023-05-23T14:59:56;28.30;99.90
28532;DHT22;15738;44.860;10.066;2023-05-23T15:02:42;28.30;99.90
28532;DHT22;15738;44.860;10.066;2023-05-23T15:05:30;28.30;99.90
28532;DHT22;15738;44.860;10.066;2023-05-23T15:08:16;28.30;99.90
28532;DHT22;15738;44.860;10.066;2023-05-23T15:11:02;28.30;99.90
28532;DHT22;15738;44.860;10.066;2023-05-23T15:13:48;28.30;99.90
28532;DHT22;15738;44.860;10.066;2023-05-23T15:16:33;28.30;99.90
28532;DHT22;15738;44.860;10.066;2023-05-23T15:19:21;28.30;99.90
28532;DHT22;15738;44.860;10.066;2023-05-23T15:22:07;28.20;99.90
28532;DHT22;15738;44.860;10.066;2023-05-23T15:25:03;28.10;99.90
28532;DHT22;15738;44.860;10.066;2023-05-23T15:27:49;28.00;99.90
28532;DHT22;15738;44.860;10.066;2023-05-23T15:30:35;27.90;99.90
28532;DHT22;15738;44.860;10.066;2023-05-23T15:33:21;27.80;99.90
28532;DHT22;15738;44.860;10.066;2023-05-23T15:36:07;27.80;99.90
28532;DHT22;15738;44.860;10.066;2023-05-23T15:38:53;27.90;99.90
28532;DHT22;15738;44.860;10.066;2023-05-23T15:41:39;27.90;99.90
28532;DHT22;15738;44.860;10.066;2023-05-23T15:44:24;28.00;99.90
28532;DHT22;15738;44.860;10.066;2023-05-23T15:47:10;28.00;99.90
28532;DHT22;15738;44.860;10.066;2023-05-23T15:49:56;27.90;99.90
28532;DHT22;15738;44.860;10.066;2023-05-23T15:52:41;27.80;99.90
28532;DHT22;15738;44.860;10.066;2023-05-23T15:55:27;27.90;99.90
28532;DHT22;15738;44.860;10.066;2023-05-23T15:58:13;27.90;99.90
28532;DHT22;15738;44.860;10.066;2023-05-23T16:00:59;27.90;99.90
28532;DHT22;15738;44.860;10.066;2023-05-23T16:03:45;27.80;99.90
28532;DHT22;15738;44.860;10.066;2023-05-23T16:06:31;27.80;99.90
28532;DHT22;15738;44.860;10.066;2023-05-23T16:09:18;27.70;99.90
28532;DHT22;15738;44.860;10.066;2023-05-23T16:12:03;27.70;99.90
28532;DHT22;15738;44.860;10.066;2023-05-23T16:14:50;27.70;99.90
28532;DHT22;15738;44.860;10.066;2023-05-23T16:17:36;27.70;99.90
28532;DHT22;15738;44.860;10.066;2023-05-23T16:20:21;27.70;99.90
28532;DHT22;15738;44.860;10.066;2023-05-23T16:23:07;27.70;99.90
28532;DHT22;15738;44.860;10.066;2023-05-23T16:25:53;27.60;99.90
28532;DHT22;15738;44.860;10.066;2023-05-23T16:28:39;27.60;99.90
28532;DHT22;15738;44.860;10.066;2023-05-23T16:31:28;27.60;99.90
28532;DHT22;15738;44.860;10.066;2023-05-23T16:34:14;27.50;99.90
28532;DHT22;15738;44.860;10.066;2023-05-23T16:36:59;27.50;99.90
28532;DHT22;15738;44.860;10.066;2023-05-23T16:39:46;27.50;99.90
28532;DHT22;15738;44.860;10.066;2023-05-23T16:42:32;27.40;99.90
28532;DHT22;15738;44.860;10.066;2023-05-23T16:45:20;27.40;99.90
28532;DHT22;15738;44.860;10.066;2023-05-23T16:48:05;27.40;99.90
28532;DHT22;15738;44.860;10.066;2023-05-23T16:50:55;27.40;99.90
28532;DHT22;15738;44.860;10.066;2023-05-23T16:53:41;27.40;99.90
28532;DHT22;15738;44.860;10.066;2023-05-23T16:56:26;27.30;99.90
28532;DHT22;15738;44.860;10.066;2023-05-23T16:59:12;27.20;99.90
28532;DHT22;15738;44.860;10.066;2023-05-23T17:01:57;27.20;99.90
28532;DHT22;15738;44.860;10.066;2023-05-23T17:04:43;27.20;99.90
28532;DHT22;15738;44.860;10.066;2023-05-23T17:07:29;27.10;99.90
28532;DHT22;15738;44.860;10.066;2023-05-23T17:10:15;27.10;99.90
28532;DHT22;15738;44.860;10.066;2023-05-23T17:13:04;27.10;99.90
28532;DHT22;15738;44.860;10.066;2023-05-23T17:15:50;27.10;99.90
28532;DHT22;15738;44.860;10.066;2023-05-23T17:18:36;27.10;99.90
28532;DHT22;15738;44.860;10.066;2023-05-23T17:21:22;27.10;99.90
28532;DHT22;15738;44.860;10.066;2023-05-23T17:24:07;27.00;99.90
28532;DHT22;15738;44.860;10.066;2023-05-23T17:26:53;26.90;99.90
28532;DHT22;15738;44.860;10.066;2023-05-23T17:29:39;26.90;99.90
28532;DHT22;15738;44.860;10.066;2023-05-23T17:32:25;26.80;99.90
28532;DHT22;15738;44.860;10.066;2023-05-23T17:35:11;26.70;99.90
28532;DHT22;15738;44.860;10.066;2023-05-23T17:37:57;26.60;99.90
28532;DHT22;15738;44.860;10.066;2023-05-23T17:40:42;26.50;99.90
28532;DHT22;15738;44.860;10.066;2023-05-23T17:43:28;26.40;99.90
28532;DHT22;15738;44.860;10.066;2023-05-23T17:46:14;26.30;99.90
28532;DHT22;15738;44.860;10.066;2023-05-23T17:49:00;26.20;99.90
28532;DHT22;15738;44.860;10.066;2023-05-23T17:51:46;26.20;99.90
28532;DHT22;15738;44.860;10.066;2023-05-23T17:54:32;26.20;99.90
28532;DHT22;15738;44.860;10.066;2023-05-23T17:57:18;26.10;99.90
28532;DHT22;15738;44.860;10.066;2023-05-23T18:00:04;26.00;99.90
28532;DHT22;15738;44.860;10.066;2023-05-23T18:02:56;26.00;99.90
28532;DHT22;15738;44.860;10.066;2023-05-23T18:05:42;25.90;99.90
28532;DHT22;15738;44.860;10.066;2023-05-23T18:08:27;25.80;99.90
28532;DHT22;15738;44.860;10.066;2023-05-23T18:11:13;25.70;99.90